sensor_id;sensor_type;location;lat;lon;timestamp;temperature;humidity
7388;DHT22;3735;50.136;11.062;2022-12-07T00:01:23;1.80;99.90
7388;DHT22;3735;50.136;11.062;2022-12-07T00:03:53;1.80;99.90
7388;DHT22;3735;50.136;11.062;2022-12-07T00:06:22;1.70;99.90
7388;DHT22;3735;50.136;11.062;2022-12-07T00:08:48;1.70;99.90
7388;DHT22;3735;50.136;11.062;2022-12-07T00:11:17;1.70;99.90
7388;DHT22;3735;50.136;11.062;2022-12-07T00:13:45;1.70;99.90
7388;DHT22;3735;50.136;11.062;2022-12-07T00:16:14;1.70;99.90
7388;DHT22;3735;50.136;11.062;2022-12-07T00:18:42;1.70;99.90
7388;DHT22;3735;50.136;11.062;2022-12-07T00:21:17;1.70;99.90
7388;DHT22;3735;50.136;11.062;2022-12-07T00:23:49;1.70;99.90
7388;DHT22;3735;50.136;11.062;2022-12-07T00:26:36;1.70;99.90
7388;DHT22;3735;50.136;11.062;2022-12-07T00:29:06;1.70;99.90
7388;DHT22;3735;50.136;11.062;2022-12-07T00:31:36;1.70;99.90
7388;DHT22;3735;50.136;11.062;2022-12-07T00:34:07;1.70;99.90
7388;DHT22;3735;50.136;11.062;2022-12-07T00:36:39;1.70;99.90
7388;DHT22;3735;50.136;11.062;2022-12-07T00:39:05;1.70;99.90
7388;DHT22;3735;50.136;11.062;2022-12-07T00:41:30;1.70;99.90
7388;DHT22;3735;50.136;11.062;2022-12-07T00:43:57;1.70;99.90
7388;DHT22;3735;50.136;11.062;2022-12-07T00:46:24;1.70;99.90
7388;DHT22;3735;50.136;11.062;2022-12-07T00:48:51;1.70;99.90
7388;DHT22;3735;50.136;11.062;2022-12-07T00:51:20;1.70;99.90
7388;DHT22;3735;50.136;11.062;2022-12-07T00:53:47;1.70;99.90
7388;DHT22;3735;50.136;11.062;2022-12-07T00:58:43;1.70;99.90
7388;DHT22;3735;50.136;11.062;2022-12-07T01:01:10;1.70;99.90
7388;DHT22;3735;50.136;11.062;2022-12-07T01:03:37;1.70;99.90
7388;DHT22;3735;50.136;11.062;2022-12-07T01:06:03;1.70;99.90
7388;DHT22;3735;50.136;11.062;2022-12-07T01:08:29;1.70;99.90
7388;DHT22;3735;50.136;11.062;2022-12-07T01:11:00;1.70;99.90
7388;DHT22;3735;50.136;11.062;2022-12-07T01:13:28;1.80;99.90
7388;DHT22;3735;50.136;11.062;2022-12-07T01:15:58;1.80;99.90
7388;DHT22;3735;50.136;11.062;2022-12-07T01:18:28;1.80;99.90
7388;DHT22;3735;50.136;11.062;2022-12-07T01:21:05;1.80;99.90
7388;DHT22;3735;50.136;11.062;2022-12-07T01:23:39;1.80;99.90
7388;DHT22;3735;50.136;11.062;2022-12-07T01:26:07;1.80;99.90
7388;DHT22;3735;50.136;11.062;2022-12-07T01:28:36;1.80;99.90
7388;DHT22;3735;50.136;11.062;2022-12-07T01:31:03;1.80;99.90
7388;DHT22;3735;50.136;11.062;2022-12-07T01:33:33;1.80;99.90
7388;DHT22;3735;50.136;11.062;2022-12-07T01:36:05;1.80;99.90
7388;DHT22;3735;50.136;11.062;2022-12-07T01:38:33;1.80;99.90
7388;DHT22;3735;50.136;11.062;2022-12-07T01:41:00;1.80;99.90
7388;DHT22;3735;50.136;11.062;2022-12-07T01:43:28;1.80;99.90
7388;DHT22;3735;50.136;11.062;2022-12-07T01:45:56;1.80;99.90
7388;DHT22;3735;50.136;11.062;2022-12-07T01:48:26;1.80;99.90
7388;DHT22;3735;50.136;11.062;2022-12-07T01:50:56;1.80;99.90
7388;DHT22;3735;50.136;11.062;2022-12-07T01:53:30;1.90;99.90
7388;DHT22;3735;50.136;11.062;2022-12-07T01:55:58;1.90;99.90
7388;DHT22;3735;50.136;11.062;2022-12-07T01:58:25;1.90;99.90
7388;DHT22;3735;50.136;11.062;2022-12-07T02:00:51;1.90;99.90
7388;DHT22;3735;50.136;11.062;2022-12-07T02:03:22;1.90;99.90
7388;DHT22;3735;50.136;11.062;2022-12-07T02:05:53;1.90;99.90
7388;DHT22;3735;50.136;11.062;2022-12-07T02:08:20;1.90;99.90
7388;DHT22;3735;50.136;11.062;2022-12-07T02:10:46;1.90;99.90
7388;DHT22;3735;50.136;11.062;2022-12-07T02:13:18;1.90;99.90
7388;DHT22;3735;50.136;11.062;2022-12-07T02:16:25;1.80;99.90
7388;DHT22;3735;50.136;11.062;2022-12-07T02:19:23;1.80;99.90
7388;DHT22;3735;50.136;11.062;2022-12-07T02:25:08;1.80;99.90
7388;DHT22;3735;50.136;11.062;2022-12-07T02:27:50;1.80;99.90
7388;DHT22;3735;50.136;11.062;2022-12-07T02:30:26;1.80;99.90
7388;DHT22;3735;50.136;11.062;2022-12-07T02:33:19;1.80;99.90
7388;DHT22;3735;50.136;11.062;2022-12-07T02:35:59;1.90;99.90
7388;DHT22;3735;50.136;11.062;2022-12-07T02:38:40;1.90;99.90
7388;DHT22;3735;50.136;11.062;2022-12-07T02:41:37;1.90;99.90
7388;DHT22;3735;50.136;11.062;2022-12-07T02:44:11;1.90;99.90
7388;DHT22;3735;50.136;11.062;2022-12-07T02:46:44;1.80;99.90
7388;DHT22;3735;50.136;11.062;2022-12-07T02:49:16;1.80;99.90
7388;DHT22;3735;50.136;11.062;2022-12-07T02:51:44;1.80;99.90
7388;DHT22;3735;50.136;11.062;2022-12-07T02:54:16;1.80;99.90
7388;DHT22;3735;50.136;11.062;2022-12-07T03:11:25;1.90;99.90
7388;DHT22;3735;50.136;11.062;2022-12-07T03:14:18;1.90;99.90
7388;DHT22;3735;50.136;11.062;2022-12-07T03:17:14;1.90;99.90
7388;DHT22;3735;50.136;11.062;2022-12-07T03:19:45;1.90;99.90
7388;DHT22;3735;50.136;11.062;2022-12-07T03:22:14;1.90;99.90
7388;DHT22;3735;50.136;11.062;2022-12-07T03:24:54;1.90;99.90
7388;DHT22;3735;50.136;11.062;2022-12-07T03:27:27;1.90;99.90
7388;DHT22;3735;50.136;11.062;2022-12-07T03:30:08;1.90;99.90
7388;DHT22;3735;50.136;11.062;2022-12-07T03:33:00;1.90;99.90
7388;DHT22;3735;50.136;11.062;2022-12-07T03:35:49;1.90;99.90
7388;DHT22;3735;50.136;11.062;2022-12-07T03:38:36;1.90;99.90
7388;DHT22;3735;50.136;11.062;2022-12-07T03:41:16;1.90;99.90
7388;DHT22;3735;50.136;11.062;2022-12-07T03:43:53;1.90;99.90
7388;DHT22;3735;50.136;11.062;2022-12-07T03:52:23;1.90;99.90
7388;DHT22;3735;50.136;11.062;2022-12-07T03:55:05;1.90;99.90
7388;DHT22;3735;50.136;11.062;2022-12-07T03:57:36;1.90;99.90
7388;DHT22;3735;50.136;11.062;2022-12-07T04:00:06;1.90;99.90
7388;DHT22;3735;50.136;11.062;2022-12-07T04:02:33;1.90;99.90
7388;DHT22;3735;50.136;11.062;2022-12-07T04:04:59;1.90;99.90
7388;DHT22;3735;50.136;11.062;2022-12-07T04:07:25;1.90;99.90
7388;DHT22;3735;50.136;11.062;2022-12-07T04:09:51;1.90;99.90
7388;DHT22;3735;50.136;11.062;2022-12-07T04:12:17;1.80;99.90
7388;DHT22;3735;50.136;11.062;2022-12-07T04:14:42;1.70;99.90
7388;DHT22;3735;50.136;11.062;2022-12-07T04:17:08;1.50;99.90
7388;DHT22;3735;50.136;11.062;2022-12-07T04:19:34;1.50;99.90
7388;DHT22;3735;50.136;11.062;2022-12-07T04:22:02;1.50;99.90
7388;DHT22;3735;50.136;11.062;2022-12-07T04:24:32;1.50;99.90
7388;DHT22;3735;50.136;11.062;2022-12-07T04:26:58;1.50;99.90
7388;DHT22;3735;50.136;11.062;2022-12-07T04:29:24;1.50;99.90
7388;DHT22;3735;50.136;11.062;2022-12-07T04:31:51;1.40;99.90
7388;DHT22;3735;50.136;11.062;2022-12-07T04:34:18;1.40;99.90
7388;DHT22;3735;50.136;11.062;2022-12-07T04:36:45;1.50;99.90
7388;DHT22;3735;50.136;11.062;2022-12-07T04:39:30;1.50;99.90
7388;DHT22;3735;50.136;11.062;2022-12-07T04:41:57;1.50;99.90
7388;DHT22;3735;50.136;11.062;2022-12-07T04:44:25;1.50;99.90
7388;DHT22;3735;50.136;11.062;2022-12-07T04:46:52;1.50;99.90
7388;DHT22;3735;50.136;11.062;2022-12-07T04:49:19;1.60;99.90
7388;DHT22;3735;50.136;11.062;2022-12-07T04:51:46;1.60;99.90
7388;DHT22;3735;50.136;11.062;2022-12-07T04:54:13;1.60;99.90
7388;DHT22;3735;50.136;11.062;2022-12-07T04:56:40;1.60;99.90
7388;DHT22;3735;50.136;11.062;2022-12-07T04:59:07;1.70;99.90
7388;DHT22;3735;50.136;11.062;2022-12-07T05:01:33;1.70;99.90
7388;DHT22;3735;50.136;11.062;2022-12-07T05:03:59;1.70;99.90
7388;DHT22;3735;50.136;11.062;2022-12-07T05:06:25;1.60;99.90
7388;DHT22;3735;50.136;11.062;2022-12-07T05:08:51;1.60;99.90
7388;DHT22;3735;50.136;11.062;2022-12-07T05:11:17;1.50;99.90
7388;DHT22;3735;50.136;11.062;2022-12-07T05:14:03;1.40;99.90
7388;DHT22;3735;50.136;11.062;2022-12-07T05:16:31;1.30;99.90
7388;DHT22;3735;50.136;11.062;2022-12-07T05:18:57;1.30;99.90
7388;DHT22;3735;50.136;11.062;2022-12-07T05:21:23;1.20;99.90
7388;DHT22;3735;50.136;11.062;2022-12-07T05:23:49;1.20;99.90
7388;DHT22;3735;50.136;11.062;2022-12-07T05:26:15;1.20;99.90
7388;DHT22;3735;50.136;11.062;2022-12-07T05:28:40;1.20;99.90
7388;DHT22;3735;50.136;11.062;2022-12-07T05:31:06;1.20;99.90
7388;DHT22;3735;50.136;11.062;2022-12-07T05:33:32;1.30;99.90
7388;DHT22;3735;50.136;11.062;2022-12-07T05:35:58;1.30;99.90
7388;DHT22;3735;50.136;11.062;2022-12-07T05:38:24;1.30;99.90
7388;DHT22;3735;50.136;11.062;2022-12-07T05:40:50;1.40;99.90
7388;DHT22;3735;50.136;11.062;2022-12-07T05:43:16;1.50;99.90
7388;DHT22;3735;50.136;11.062;2022-12-07T05:45:42;1.50;99.90
7388;DHT22;3735;50.136;11.062;2022-12-07T05:48:07;1.50;99.90
7388;DHT22;3735;50.136;11.062;2022-12-07T05:50:33;1.60;99.90
7388;DHT22;3735;50.136;11.062;2022-12-07T05:52:59;1.60;99.90
7388;DHT22;3735;50.136;11.062;2022-12-07T05:55:25;1.60;99.90
7388;DHT22;3735;50.136;11.062;2022-12-07T05:57:51;1.60;99.90
7388;DHT22;3735;50.136;11.062;2022-12-07T06:00:35;1.60;99.90
7388;DHT22;3735;50.136;11.062;2022-12-07T06:03:01;1.60;99.90
7388;DHT22;3735;50.136;11.062;2022-12-07T06:05:27;1.60;99.90
7388;DHT22;3735;50.136;11.062;2022-12-07T06:07:52;1.70;99.90
7388;DHT22;3735;50.136;11.062;2022-12-07T06:10:18;1.70;99.90
7388;DHT22;3735;50.136;11.062;2022-12-07T06:12:44;1.70;99.90
7388;DHT22;3735;50.136;11.062;2022-12-07T06:15:11;1.70;99.90
7388;DHT22;3735;50.136;11.062;2022-12-07T06:17:38;1.70;99.90
7388;DHT22;3735;50.136;11.062;2022-12-07T06:20:05;1.80;99.90
7388;DHT22;3735;50.136;11.062;2022-12-07T06:22:32;1.80;99.90
7388;DHT22;3735;50.136;11.062;2022-12-07T06:24:57;1.70;99.90
7388;DHT22;3735;50.136;11.062;2022-12-07T06:27:23;1.70;99.90
7388;DHT22;3735;50.136;11.062;2022-12-07T06:29:49;1.80;99.90
7388;DHT22;3735;50.136;11.062;2022-12-07T06:32:14;1.80;99.90
7388;DHT22;3735;50.136;11.062;2022-12-07T06:34:40;1.80;99.90
7388;DHT22;3735;50.136;11.062;2022-12-07T06:37:06;1.80;99.90
7388;DHT22;3735;50.136;11.062;2022-12-07T06:39:32;1.80;99.90
7388;DHT22;3735;50.136;11.062;2022-12-07T06:41:58;1.90;99.90
7388;DHT22;3735;50.136;11.062;2022-12-07T06:44:24;1.90;99.90
7388;DHT22;3735;50.136;11.062;2022-12-07T06:46:51;1.90;99.90
7388;DHT22;3735;50.136;11.062;2022-12-07T06:49:17;1.90;99.90
7388;DHT22;3735;50.136;11.062;2022-12-07T06:51:43;1.90;99.90
7388;DHT22;3735;50.136;11.062;2022-12-07T06:54:10;1.90;99.90
7388;DHT22;3735;50.136;11.062;2022-12-07T06:56:38;1.90;99.90
7388;DHT22;3735;50.136;11.062;2022-12-07T06:59:05;1.90;99.90
7388;DHT22;3735;50.136;11.062;2022-12-07T07:01:33;1.90;99.90
7388;DHT22;3735;50.136;11.062;2022-12-07T07:04:00;1.90;99.90
7388;DHT22;3735;50.136;11.062;2022-12-07T07:06:26;2.00;99.90
7388;DHT22;3735;50.136;11.062;2022-12-07T07:08:52;2.00;99.90
7388;DHT22;3735;50.136;11.062;2022-12-07T07:11:18;2.00;99.90
7388;DHT22;3735;50.136;11.062;2022-12-07T07:13:44;2.00;99.90
7388;DHT22;3735;50.136;11.062;2022-12-07T07:16:10;2.00;99.90
7388;DHT22;3735;50.136;11.062;2022-12-07T07:18:37;2.00;99.90
7388;DHT22;3735;50.136;11.062;2022-12-07T07:21:03;2.10;99.90
7388;DHT22;3735;50.136;11.062;2022-12-07T07:23:29;2.10;99.90
7388;DHT22;3735;50.136;11.062;2022-12-07T07:25:56;2.10;99.90
7388;DHT22;3735;50.136;11.062;2022-12-07T07:28:21;2.10;99.90
7388;DHT22;3735;50.136;11.062;2022-12-07T07:30:48;2.10;99.90
7388;DHT22;3735;50.136;11.062;2022-12-07T07:33:14;2.10;99.90
7388;DHT22;3735;50.136;11.062;2022-12-07T07:35:40;2.10;99.90
7388;DHT22;3735;50.136;11.062;2022-12-07T07:38:07;2.20;99.90
7388;DHT22;3735;50.136;11.062;2022-12-07T07:40:33;2.20;99.90
7388;DHT22;3735;50.136;11.062;2022-12-07T07:42:59;2.20;99.90
7388;DHT22;3735;50.136;11.062;2022-12-07T07:45:26;2.20;99.90
7388;DHT22;3735;50.136;11.062;2022-12-07T07:47:52;2.30;99.90
7388;DHT22;3735;50.136;11.062;2022-12-07T07:50:18;2.30;99.90
7388;DHT22;3735;50.136;11.062;2022-12-07T07:52:46;2.30;99.90
7388;DHT22;3735;50.136;11.062;2022-12-07T07:55:12;2.40;99.90
7388;DHT22;3735;50.136;11.062;2022-12-07T07:57:39;2.30;99.90
7388;DHT22;3735;50.136;11.062;2022-12-07T08:00:08;2.40;99.90
7388;DHT22;3735;50.136;11.062;2022-12-07T08:02:36;2.40;99.90
7388;DHT22;3735;50.136;11.062;2022-12-07T08:05:01;2.40;99.90
7388;DHT22;3735;50.136;11.062;2022-12-07T08:07:27;2.40;99.90
7388;DHT22;3735;50.136;11.062;2022-12-07T08:09:53;2.50;99.90
7388;DHT22;3735;50.136;11.062;2022-12-07T08:12:19;2.50;99.90
7388;DHT22;3735;50.136;11.062;2022-12-07T08:14:45;2.50;99.90
7388;DHT22;3735;50.136;11.062;2022-12-07T08:17:11;2.60;99.90
7388;DHT22;3735;50.136;11.062;2022-12-07T08:19:37;2.60;99.90
7388;DHT22;3735;50.136;11.062;2022-12-07T08:22:03;2.60;99.90
7388;DHT22;3735;50.136;11.062;2022-12-07T08:24:29;2.60;99.90
7388;DHT22;3735;50.136;11.062;2022-12-07T08:26:57;2.70;99.90
7388;DHT22;3735;50.136;11.062;2022-12-07T08:29:23;2.70;99.90
7388;DHT22;3735;50.136;11.062;2022-12-07T08:31:49;2.70;99.90
7388;DHT22;3735;50.136;11.062;2022-12-07T08:34:15;2.70;99.90
7388;DHT22;3735;50.136;11.062;2022-12-07T08:36:40;2.70;99.90
7388;DHT22;3735;50.136;11.062;2022-12-07T08:39:06;2.80;99.90
7388;DHT22;3735;50.136;11.062;2022-12-07T08:41:32;2.80;99.90
7388;DHT22;3735;50.136;11.062;2022-12-07T08:43:58;2.80;99.90
7388;DHT22;3735;50.136;11.062;2022-12-07T08:46:39;2.90;99.90
7388;DHT22;3735;50.136;11.062;2022-12-07T08:49:26;2.90;99.90
7388;DHT22;3735;50.136;11.062;2022-12-07T08:51:56;2.90;99.90
7388;DHT22;3735;50.136;11.062;2022-12-07T08:54:22;3.00;99.90
7388;DHT22;3735;50.136;11.062;2022-12-07T08:56:49;3.10;99.90
7388;DHT22;3735;50.136;11.062;2022-12-07T08:59:19;3.10;99.90
7388;DHT22;3735;50.136;11.062;2022-12-07T09:01:46;3.10;99.90
7388;DHT22;3735;50.136;11.062;2022-12-07T09:04:11;3.10;99.90
7388;DHT22;3735;50.136;11.062;2022-12-07T09:06:38;3.10;99.90
7388;DHT22;3735;50.136;11.062;2022-12-07T09:09:04;3.10;99.90
7388;DHT22;3735;50.136;11.062;2022-12-07T09:11:30;3.10;99.90
7388;DHT22;3735;50.136;11.062;2022-12-07T09:13:55;3.10;99.90
7388;DHT22;3735;50.136;11.062;2022-12-07T09:16:22;3.10;99.90
7388;DHT22;3735;50.136;11.062;2022-12-07T09:18:48;3.10;99.90
7388;DHT22;3735;50.136;11.062;2022-12-07T09:21:13;3.10;99.90
7388;DHT22;3735;50.136;11.062;2022-12-07T09:23:41;3.10;99.90
7388;DHT22;3735;50.136;11.062;2022-12-07T09:26:08;3.00;99.90
7388;DHT22;3735;50.136;11.062;2022-12-07T09:28:34;3.10;99.90
7388;DHT22;3735;50.136;11.062;2022-12-07T09:31:00;3.10;99.90
7388;DHT22;3735;50.136;11.062;2022-12-07T09:33:27;3.20;99.90
7388;DHT22;3735;50.136;11.062;2022-12-07T09:35:53;3.20;99.90
7388;DHT22;3735;50.136;11.062;2022-12-07T09:38:19;3.30;99.90
7388;DHT22;3735;50.136;11.062;2022-12-07T09:40:46;3.30;99.90
7388;DHT22;3735;50.136;11.062;2022-12-07T09:43:14;3.40;99.90
7388;DHT22;3735;50.136;11.062;2022-12-07T09:45:44;3.40;99.90
7388;DHT22;3735;50.136;11.062;2022-12-07T09:48:31;3.50;99.90
7388;DHT22;3735;50.136;11.062;2022-12-07T09:51:01;3.50;99.90
7388;DHT22;3735;50.136;11.062;2022-12-07T09:53:34;3.50;99.90
7388;DHT22;3735;50.136;11.062;2022-12-07T09:56:03;3.50;99.90
7388;DHT22;3735;50.136;11.062;2022-12-07T09:58:30;3.50;99.90
7388;DHT22;3735;50.136;11.062;2022-12-07T10:01:16;3.60;99.90
7388;DHT22;3735;50.136;11.062;2022-12-07T10:03:52;3.60;99.90
7388;DHT22;3735;50.136;11.062;2022-12-07T10:06:20;3.70;99.90
7388;DHT22;3735;50.136;11.062;2022-12-07T10:08:46;3.70;99.90
7388;DHT22;3735;50.136;11.062;2022-12-07T10:11:12;3.80;99.90
7388;DHT22;3735;50.136;11.062;2022-12-07T10:13:51;3.90;99.90
7388;DHT22;3735;50.136;11.062;2022-12-07T10:18:54;4.10;99.90
7388;DHT22;3735;50.136;11.062;2022-12-07T10:21:25;4.20;99.90
7388;DHT22;3735;50.136;11.062;2022-12-07T10:26:53;4.40;99.90
7388;DHT22;3735;50.136;11.062;2022-12-07T10:29:31;4.60;99.90
7388;DHT22;3735;50.136;11.062;2022-12-07T10:32:02;4.80;99.90
7388;DHT22;3735;50.136;11.062;2022-12-07T10:34:49;4.80;99.90
7388;DHT22;3735;50.136;11.062;2022-12-07T10:37:19;4.70;99.90
7388;DHT22;3735;50.136;11.062;2022-12-07T10:39:51;4.60;99.90
7388;DHT22;3735;50.136;11.062;2022-12-07T10:42:24;4.50;99.90
7388;DHT22;3735;50.136;11.062;2022-12-07T10:45:18;4.40;99.90
7388;DHT22;3735;50.136;11.062;2022-12-07T10:53:44;4.30;99.90
7388;DHT22;3735;50.136;11.062;2022-12-07T10:59:34;4.40;99.90
7388;DHT22;3735;50.136;11.062;2022-12-07T11:11:36;4.40;99.90
7388;DHT22;3735;50.136;11.062;2022-12-07T11:16:50;4.40;99.90
7388;DHT22;3735;50.136;11.062;2022-12-07T11:22:19;4.50;99.90
7388;DHT22;3735;50.136;11.062;2022-12-07T11:25:25;4.60;99.90
7388;DHT22;3735;50.136;11.062;2022-12-07T11:28:18;4.80;99.90
7388;DHT22;3735;50.136;11.062;2022-12-07T11:33:33;4.80;99.90
7388;DHT22;3735;50.136;11.062;2022-12-07T11:36:31;5.00;99.90
7388;DHT22;3735;50.136;11.062;2022-12-07T11:39:04;5.00;99.90
7388;DHT22;3735;50.136;11.062;2022-12-07T11:41:56;4.90;99.90
7388;DHT22;3735;50.136;11.062;2022-12-07T11:52:55;9.90;99.90
7388;DHT22;3735;50.136;11.062;2022-12-07T12:03:47;7.50;99.90
7388;DHT22;3735;50.136;11.062;2022-12-07T12:06:16;7.20;99.90
7388;DHT22;3735;50.136;11.062;2022-12-07T12:09:00;6.80;99.90
7388;DHT22;3735;50.136;11.062;2022-12-07T12:20:30;5.40;99.90
7388;DHT22;3735;50.136;11.062;2022-12-07T12:23:22;5.30;99.90
7388;DHT22;3735;50.136;11.062;2022-12-07T12:26:07;5.20;99.90
7388;DHT22;3735;50.136;11.062;2022-12-07T12:28:49;5.10;99.90
7388;DHT22;3735;50.136;11.062;2022-12-07T12:33:52;5.00;99.90
7388;DHT22;3735;50.136;11.062;2022-12-07T12:39:13;4.90;99.90
7388;DHT22;3735;50.136;11.062;2022-12-07T12:51:53;4.80;99.90
7388;DHT22;3735;50.136;11.062;2022-12-07T12:54:30;4.90;99.90
7388;DHT22;3735;50.136;11.062;2022-12-07T13:05:00;4.80;99.90
7388;DHT22;3735;50.136;11.062;2022-12-07T13:18:41;4.80;99.90
7388;DHT22;3735;50.136;11.062;2022-12-07T13:23:36;4.70;99.90
7388;DHT22;3735;50.136;11.062;2022-12-07T13:29:19;4.80;99.90
7388;DHT22;3735;50.136;11.062;2022-12-07T13:31:53;4.80;99.90
7388;DHT22;3735;50.136;11.062;2022-12-07T13:34:35;5.40;99.90
7388;DHT22;3735;50.136;11.062;2022-12-07T13:37:09;5.80;99.90
7388;DHT22;3735;50.136;11.062;2022-12-07T13:39:47;5.90;99.90
7388;DHT22;3735;50.136;11.062;2022-12-07T13:42:24;5.80;99.90
7388;DHT22;3735;50.136;11.062;2022-12-07T13:44:52;5.60;99.90
7388;DHT22;3735;50.136;11.062;2022-12-07T13:50:00;5.40;99.90
7388;DHT22;3735;50.136;11.062;2022-12-07T13:52:28;5.40;99.90
7388;DHT22;3735;50.136;11.062;2022-12-07T13:55:11;5.40;99.90
7388;DHT22;3735;50.136;11.062;2022-12-07T13:57:40;5.20;99.90
7388;DHT22;3735;50.136;11.062;2022-12-07T14:00:16;4.90;99.90
7388;DHT22;3735;50.136;11.062;2022-12-07T14:03:25;4.80;99.90
7388;DHT22;3735;50.136;11.062;2022-12-07T14:08:39;4.40;99.90
7388;DHT22;3735;50.136;11.062;2022-12-07T14:11:10;4.30;99.90
7388;DHT22;3735;50.136;11.062;2022-12-07T14:13:51;4.30;99.90
7388;DHT22;3735;50.136;11.062;2022-12-07T14:16:30;4.30;99.90
7388;DHT22;3735;50.136;11.062;2022-12-07T14:19:03;4.30;99.90
7388;DHT22;3735;50.136;11.062;2022-12-07T14:21:32;4.30;99.90
7388;DHT22;3735;50.136;11.062;2022-12-07T14:24:15;4.20;99.90
7388;DHT22;3735;50.136;11.062;2022-12-07T14:26:49;4.20;99.90
7388;DHT22;3735;50.136;11.062;2022-12-07T14:31:53;4.10;99.90
7388;DHT22;3735;50.136;11.062;2022-12-07T14:34:20;4.10;99.90
7388;DHT22;3735;50.136;11.062;2022-12-07T14:36:47;4.00;99.90
7388;DHT22;3735;50.136;11.062;2022-12-07T14:39:13;4.00;99.90
7388;DHT22;3735;50.136;11.062;2022-12-07T14:41:39;4.00;99.90
7388;DHT22;3735;50.136;11.062;2022-12-07T14:44:19;4.00;99.90
7388;DHT22;3735;50.136;11.062;2022-12-07T14:46:49;3.90;99.90
7388;DHT22;3735;50.136;11.062;2022-12-07T14:49:16;3.90;99.90
7388;DHT22;3735;50.136;11.062;2022-12-07T14:51:44;3.90;99.90
7388;DHT22;3735;50.136;11.062;2022-12-07T14:54:15;3.70;99.90
7388;DHT22;3735;50.136;11.062;2022-12-07T14:56:44;3.50;99.90
7388;DHT22;3735;50.136;11.062;2022-12-07T14:59:15;3.30;99.90
7388;DHT22;3735;50.136;11.062;2022-12-07T15:01:42;3.10;99.90
7388;DHT22;3735;50.136;11.062;2022-12-07T15:04:08;2.90;99.90
7388;DHT22;3735;50.136;11.062;2022-12-07T15:06:34;2.70;99.90
7388;DHT22;3735;50.136;11.062;2022-12-07T15:09:01;2.40;99.90
7388;DHT22;3735;50.136;11.062;2022-12-07T15:11:27;2.20;99.90
7388;DHT22;3735;50.136;11.062;2022-12-07T15:13:53;2.00;99.90
7388;DHT22;3735;50.136;11.062;2022-12-07T15:16:35;1.90;99.90
7388;DHT22;3735;50.136;11.062;2022-12-07T15:19:01;1.90;99.90
7388;DHT22;3735;50.136;11.062;2022-12-07T15:21:28;2.00;99.90
7388;DHT22;3735;50.136;11.062;2022-12-07T15:23:54;2.00;99.90
7388;DHT22;3735;50.136;11.062;2022-12-07T15:26:19;2.20;99.90
7388;DHT22;3735;50.136;11.062;2022-12-07T15:28:45;2.30;99.90
7388;DHT22;3735;50.136;11.062;2022-12-07T15:31:15;2.40;99.90
7388;DHT22;3735;50.136;11.062;2022-12-07T15:33:43;2.40;99.90
7388;DHT22;3735;50.136;11.062;2022-12-07T15:36:23;2.40;99.90
7388;DHT22;3735;50.136;11.062;2022-12-07T15:38:50;2.30;99.90
7388;DHT22;3735;50.136;11.062;2022-12-07T15:41:17;2.40;99.90
7388;DHT22;3735;50.136;11.062;2022-12-07T15:43:46;2.40;99.90
7388;DHT22;3735;50.136;11.062;2022-12-07T15:46:39;2.40;99.90
7388;DHT22;3735;50.136;11.062;2022-12-07T15:49:10;2.40;99.90
7388;DHT22;3735;50.136;11.062;2022-12-07T15:51:44;2.40;99.90
7388;DHT22;3735;50.136;11.062;2022-12-07T15:54:29;2.30;99.90
7388;DHT22;3735;50.136;11.062;2022-12-07T15:56:56;2.20;99.90
7388;DHT22;3735;50.136;11.062;2022-12-07T15:59:22;2.10;99.90
7388;DHT22;3735;50.136;11.062;2022-12-07T16:01:48;2.00;99.90
7388;DHT22;3735;50.136;11.062;2022-12-07T16:04:14;1.90;99.90
7388;DHT22;3735;50.136;11.062;2022-12-07T16:06:40;1.90;99.90
7388;DHT22;3735;50.136;11.062;2022-12-07T16:09:07;1.80;99.90
7388;DHT22;3735;50.136;11.062;2022-12-07T16:11:33;1.80;99.90
7388;DHT22;3735;50.136;11.062;2022-12-07T16:13:59;1.80;99.90
7388;DHT22;3735;50.136;11.062;2022-12-07T16:16:25;1.80;99.90
7388;DHT22;3735;50.136;11.062;2022-12-07T16:18:51;1.80;99.90
7388;DHT22;3735;50.136;11.062;2022-12-07T16:21:17;1.90;99.90
7388;DHT22;3735;50.136;11.062;2022-12-07T16:23:44;1.90;99.90
7388;DHT22;3735;50.136;11.062;2022-12-07T16:26:13;1.80;99.90
7388;DHT22;3735;50.136;11.062;2022-12-07T16:28:41;1.70;99.90
7388;DHT22;3735;50.136;11.062;2022-12-07T16:31:13;1.70;99.90
7388;DHT22;3735;50.136;11.062;2022-12-07T16:33:41;1.70;99.90
7388;DHT22;3735;50.136;11.062;2022-12-07T16:36:10;1.80;99.90
7388;DHT22;3735;50.136;11.062;2022-12-07T16:38:37;1.90;99.90
7388;DHT22;3735;50.136;11.062;2022-12-07T16:41:05;1.90;99.90
7388;DHT22;3735;50.136;11.062;2022-12-07T16:43:32;2.00;99.90
7388;DHT22;3735;50.136;11.062;2022-12-07T16:45:58;2.10;99.90
7388;DHT22;3735;50.136;11.062;2022-12-07T16:48:25;2.10;99.90
7388;DHT22;3735;50.136;11.062;2022-12-07T16:50:51;2.20;99.90
7388;DHT22;3735;50.136;11.062;2022-12-07T16:53:19;2.30;99.90
7388;DHT22;3735;50.136;11.062;2022-12-07T16:55:46;2.30;99.90
7388;DHT22;3735;50.136;11.062;2022-12-07T16:58:14;2.30;99.90
7388;DHT22;3735;50.136;11.062;2022-12-07T17:00:42;2.40;99.90
7388;DHT22;3735;50.136;11.062;2022-12-07T17:03:08;2.40;99.90
7388;DHT22;3735;50.136;11.062;2022-12-07T17:05:42;2.50;99.90
7388;DHT22;3735;50.136;11.062;2022-12-07T17:08:09;2.50;99.90
7388;DHT22;3735;50.136;11.062;2022-12-07T17:10:38;2.50;99.90
7388;DHT22;3735;50.136;11.062;2022-12-07T17:13:07;2.60;99.90
7388;DHT22;3735;50.136;11.062;2022-12-07T17:16:03;2.60;99.90
7388;DHT22;3735;50.136;11.062;2022-12-07T17:18:32;2.70;99.90
7388;DHT22;3735;50.136;11.062;2022-12-07T17:21:05;2.70;99.90
7388;DHT22;3735;50.136;11.062;2022-12-07T17:23:33;2.70;99.90
7388;DHT22;3735;50.136;11.062;2022-12-07T17:26:16;2.70;99.90
7388;DHT22;3735;50.136;11.062;2022-12-07T17:28:44;2.70;99.90
7388;DHT22;3735;50.136;11.062;2022-12-07T17:31:12;2.70;99.90
7388;DHT22;3735;50.136;11.062;2022-12-07T17:33:39;2.60;99.90
7388;DHT22;3735;50.136;11.062;2022-12-07T17:36:14;2.60;99.90
7388;DHT22;3735;50.136;11.062;2022-12-07T17:38:40;2.60;99.90
7388;DHT22;3735;50.136;11.062;2022-12-07T17:41:18;2.60;99.90
7388;DHT22;3735;50.136;11.062;2022-12-07T17:44:05;2.60;99.90
7388;DHT22;3735;50.136;11.062;2022-12-07T17:46:33;2.50;99.90
7388;DHT22;3735;50.136;11.062;2022-12-07T17:49:00;2.50;99.90
7388;DHT22;3735;50.136;11.062;2022-12-07T17:51:26;2.50;99.90
7388;DHT22;3735;50.136;11.062;2022-12-07T17:54:12;2.50;99.90
7388;DHT22;3735;50.136;11.062;2022-12-07T17:56:37;2.50;99.90
7388;DHT22;3735;50.136;11.062;2022-12-07T17:59:04;2.50;99.90
7388;DHT22;3735;50.136;11.062;2022-12-07T18:01:30;2.50;99.90
7388;DHT22;3735;50.136;11.062;2022-12-07T18:03:57;2.50;99.90
7388;DHT22;3735;50.136;11.062;2022-12-07T18:06:23;2.50;99.90
7388;DHT22;3735;50.136;11.062;2022-12-07T18:08:49;2.40;99.90
7388;DHT22;3735;50.136;11.062;2022-12-07T18:11:15;2.40;99.90
7388;DHT22;3735;50.136;11.062;2022-12-07T18:13:41;2.40;99.90
7388;DHT22;3735;50.136;11.062;2022-12-07T18:16:18;2.40;99.90
7388;DHT22;3735;50.136;11.062;2022-12-07T18:18:46;2.40;99.90
7388;DHT22;3735;50.136;11.062;2022-12-07T18:21:17;2.40;99.90
7388;DHT22;3735;50.136;11.062;2022-12-07T18:23:47;2.40;99.90
7388;DHT22;3735;50.136;11.062;2022-12-07T18:26:16;2.30;99.90
7388;DHT22;3735;50.136;11.062;2022-12-07T18:28:44;2.30;99.90
7388;DHT22;3735;50.136;11.062;2022-12-07T18:31:11;2.40;99.90
7388;DHT22;3735;50.136;11.062;2022-12-07T18:33:38;2.30;99.90
7388;DHT22;3735;50.136;11.062;2022-12-07T18:36:05;2.30;99.90